Racecast

Salem-Keizer All-City Meet

Bush Park · 2000m · Boys · Compiled · OR

113 runners from 1 division

These divisions were run separately. This is how their times compare, not how they finished — the places and scores below were never contested.

View full meet →

Team scores

Place Team Points 12345 67
1 Straub (OR) 28 1 3 4 6 14 30 34
2 Whiteaker (OR) 61 2 8 16 17 18 19 28
3 Parrish (OR) 63 7 10 11 15 20 25 27
4 Crossler (OR) 83 5 9 12 26 31 33 38
5 Walker (OR) 168 21 23 35 44 45 48
6 Judson (OR) 176 24 36 37 39 40 42 47
7 Claggett Creek (OR) 181 13 29 32 51 56 59 61
8 Waldo (OR) 216 22 43 49 50 52 53 60
9 Houck (OR) 253 41 46 54 55 57 58 62

Not scored, fewer than five finishers: Leslie (3), Adam Stephens (3), Howard Street Charter (1)

Rating scale ?

Results

Place Athlete Grade School Time Rating Points Actual race
1 Ryen Rojas 6 Straub (OR) 1 7:40.0 118.6 1 1
2 Brayden Felbob 6 Whiteaker (OR) 1 7:51.0 115.8 2 2
3 Chase Moretz 6 Straub (OR) 2 7:53.0 115.3 3 3
4 Kevin Cooke 6 Straub (OR) 3 7:54.0 115.1 4 4
5 Michael Shidler Smith 6 Crossler (OR) 1 7:54.0 115.1 5 5
6 Logan Warner 6 Straub (OR) 4 7:56.0 114.6 6 6
7 Demari Thompson 6 Parrish (OR) 1 7:58.0 114.1 7 7
8 Riley Castillo 6 Whiteaker (OR) 2 8:04.0 112.7 8 8
9 Preston Berndt 6 Crossler (OR) 2 8:07.0 112.0 9 9
10 Therron Osborn 6 Parrish (OR) 2 8:07.0 112.0 10 10
11 Luis Zurita Calderon 6 Parrish (OR) 3 8:10.0 111.3 11 11
12 Wyatt Noud 6 Crossler (OR) 3 8:12.0 110.9 12 12
13 Evan Berg 6 Claggett Creek (OR) 1 8:14.0 110.4 13 13
14 Redic Bodine 6 Straub (OR) 5 8:15.0 110.2 14 14
15 Christopher Gallegos 6 Parrish (OR) 4 8:18.0 109.5 15 15
16 Pawat Potisuk 6 Whiteaker (OR) 3 8:21.0 108.9 16 16
17 Kelson Whalen 6 Whiteaker (OR) 4 8:21.0 108.9 17 17
18 Cassius Hernandez 6 Whiteaker (OR) 5 8:25.0 108.0 18 18
19 Elijah Staley 6 Whiteaker (OR) 6 8:25.0 108.0 19 19
20 Oscar Gomez Lopez 6 Parrish (OR) 5 8:26.0 107.8 20 20
21 Samuel Garcia 6 Walker (OR) 1 8:28.0 107.4 21 21
22 Audric Albarran 8 Waldo (OR) 1 8:29.0 22 22
23 Aidan East 6 Walker (OR) 2 8:30.0 106.9 23 23
24 Grayson Stewart 6 Judson (OR) 1 8:33.0 106.3 24 24
25 Boaz Purnell 6 Parrish (OR) 6 8:33.0 106.3 25 25
26 Andrew Olsen 6 Crossler (OR) 4 8:35.0 105.9 26 26
27 Dylan Luther 6 Parrish (OR) 7 8:37.0 105.5 27 27
28 Carson Tompkins 6 Whiteaker (OR) 7 8:38.0 105.3 28 28
29 Eli Case 6 Claggett Creek (OR) 2 8:40.0 104.9 29 29
30 Blake Johnston 6 Straub (OR) 6 8:43.0 104.3 30 30
31 John Winn 6 Crossler (OR) 5 8:43.0 104.3 31 31
32 Gavin Williams 6 Claggett Creek (OR) 3 8:48.0 103.3 32 32
33 Louden Beane 6 Parrish (OR) 8 8:49.0 103.1 33
34 Dominic Snyder 6 Whiteaker (OR) 8 8:55.0 101.9 34
35 Kevin Stewart 6 Crossler (OR) 6 8:56.0 101.8 33 35
36 Abimael Salinas Hernan 6 Leslie (OR) 1 8:56.0 101.8 36
37 Syrone Holguin 6 Leslie (OR) 2 9:00.0 101.0 37
38 Makai DeBerry 6 Straub (OR) 7 9:02.0 100.6 34 38
39 Lucas Kimsey 6 Walker (OR) 3 9:02.0 100.6 35 39
40 Ethan Ellison 6 Judson (OR) 2 9:03.0 100.4 36 40
41 Evan Cassler 6 Judson (OR) 3 9:07.0 99.7 37 41
42 Anthony Mendez 6 Crossler (OR) 7 9:08.0 99.5 38 42
43 Burke Elkins 6 Crossler (OR) 8 9:10.0 99.2 43
44 Eelan Nevel 6 Judson (OR) 4 9:11.0 99.0 39 44
45 Darmani Soto 7 Adam Stephens (OR) 1 9:11.0 99.0 45
46 Caleb Matthews 6 Whiteaker (OR) 9 9:12.0 98.8 46
47 Demetrius Yehnert 6 Crossler (OR) 9 9:13.0 98.6 47
48 Troy Watson 6 Parrish (OR) 9 9:14.0 98.4 48
49 Griffen Mucken 6 Straub (OR) 8 9:14.0 98.4 49
50 Conner Baarson 6 Crossler (OR) 10 9:15.0 98.3 50
51 Ryan Wiggers 6 Judson (OR) 5 9:20.0 97.4 40 51
52 Mathew Lopez 6 Houck (OR) 1 9:21.0 97.2 41 52
53 Benjamin Wood 6 Whiteaker (OR) 10 9:22.0 97.1 53
54 Jacob Nemecek 6 Judson (OR) 6 9:23.0 96.9 42 54
55 Alejandro Williams 6 Waldo (OR) 2 9:24.0 96.7 43 55
56 Ismael Rodriguez 6 Whiteaker (OR) 11 9:27.0 96.2 56
57 RIley Pratt 6 Straub (OR) 9 9:29.0 95.9 57
58 Gavin Hays 6 Crossler (OR) 11 9:35.0 94.8 58
59 Andrew Salas 6 Parrish (OR) 10 9:35.0 94.8 59
60 Tyler Coughran 6 Straub (OR) 10 9:35.0 94.8 60
61 Jackson Abbott 6 Straub (OR) 11 9:36.0 94.7 61
62 Nicholas Telford 6 Walker (OR) 4 9:38.0 94.4 44 62
63 Kastin Osteen 6 Crossler (OR) 12 9:38.0 94.4 63
64 Noah Lounsbury 6 Crossler (OR) 13 9:39.0 94.2 64
65 Ryker Gimes-Burke 6 Crossler (OR) 14 9:42.0 93.7 65
66 Kjell Peters 6 Walker (OR) 5 9:42.0 93.7 45 66
67 Aiden Mashos 6 Parrish (OR) 11 9:43.0 93.6 67
68 Ramon Zepeda Tinoco 6 Parrish (OR) 12 9:50.0 92.4 68
69 Jesus Salazar Cervantes 6 Houck (OR) 2 9:51.0 92.3 46 69
70 Austin Smith 6 Judson (OR) 7 9:51.0 92.3 47 70
71 Hunter Jarvis 6 Judson (OR) 8 9:52.0 92.1 71
72 Bradley Fryman 6 Whiteaker (OR) 12 9:55.0 91.7 72
73 Phoenix Marquez 6 Walker (OR) 6 9:57.0 91.4 48 73
74 Luke Schriber 6 Judson (OR) 9 9:58.0 91.2 74
75 Stanley House 6 Waldo (OR) 3 10:03.0 90.4 49 75
76 Andrew Bowman 6 Leslie (OR) 3 10:04.0 90.3 76
77 Brayan Lara Lopez 6 Waldo (OR) 4 10:13.0 89.0 50 77
78 Shawn Smith 6 Parrish (OR) 13 10:18.0 88.2 78
79 Damian Raines 6 Straub (OR) 12 10:20.0 88.0 79
80 Declan Yoder 6 Judson (OR) 10 10:21.0 87.8 80
81 Max Wilch 6 Straub (OR) 13 10:24.0 87.4 81
82 Ariel Rosas 6 Adam Stephens (OR) 2 10:28.0 86.8 82
83 Jackson Jorstad 6 Straub (OR) 14 10:29.0 86.7 83
84 Evan Ponsioen 6 Crossler (OR) 15 10:40.0 85.2 84
85 Eric Gemmill 7 Judson (OR) 11 10:40.0 85.2 85
86 Jose Martinez Hernandez 6 Claggett Creek (OR) 4 10:43.0 84.8 51 86
87 Dakota Hamilton 6 Waldo (OR) 5 10:52.0 83.7 52 87
88 Effrain Ramirez 6 Waldo (OR) 6 11:00.0 82.6 53 88
89 Immanuel Bartsch 6 Houck (OR) 3 11:05.0 82.0 54 89
90 Alijah Reckard 6 Houck (OR) 4 11:08.0 81.7 55 90
91 Dominic Covarrubias 6 Crossler (OR) 16 11:12.0 81.2 91
92 Julian Herrera 6 Claggett Creek (OR) 5 11:16.0 80.7 56 92
93 Cruz Naylor 6 Crossler (OR) 17 11:20.0 80.2 93
94 Divine Masasi 6 Houck (OR) 5 11:21.0 80.1 57 94
95 Edjahir Ruiz 6 Houck (OR) 6 11:31.0 78.9 58 95
96 Noah Dunn 6 Claggett Creek (OR) 6 11:42.0 77.7 59 96
97 John Aurestilla 6 Waldo (OR) 7 11:43.0 60 97
98 Maiken Schmidt Van Acker 6 Crossler (OR) 18 11:59.0 75.9 98
99 Jeryn Duncan 8 Judson (OR) 12 12:05.0 75.2 99
100 Jack Fox 8 Judson (OR) 13 12:12.0 74.5 100
101 Elijah Clendening 6 Whiteaker (OR) 13 12:14.0 74.3 101
102 Garison Dickinson 6 Waldo (OR) 8 12:14.0 74.3 102
103 Gavin Galloway 6 Howard Street Charter (OR) 1 12:25.0 73.2 103
104 Diego Camargo Perez 6 Parrish (OR) 14 12:31.0 72.6 104
105 Tanner Johansen 6 Straub (OR) 15 12:32.0 72.5 105
106 Ricky Templeton 6 Straub (OR) 16 12:33.0 72.4 106
107 Primitivo Zaragoza 6 Crossler (OR) 19 12:34.0 72.3 107
108 Ronan Snyder 6 Whiteaker (OR) 14 12:46.0 71.2 108
109 Nicholas Stone 6 Parrish (OR) 15 12:53.0 70.6 109
110 Cameron Vollendroff 6 Claggett Creek (OR) 7 13:20.0 68.2 61 110
111 Bryce Gordon 6 Houck (OR) 7 14:17.0 63.6 62 111
112 Antonio Lopez San Juan 6 Adam Stephens (OR) 3 15:13.0 59.7 112
113 Romeo Soichy 6 Houck (OR) 8 15:55.0 57.1 113